Time;durP1;ratioP1;P1;durP2;ratioP2;P2;SDS_P1;SDS_P2;PMS_P1;PMS_P2;Temp;Humidity;BMP_temperature;BMP_pressure;BME280_temperature;BME280_humidity;BME280_pressure;Samples;Min_cycle;Max_cycle;Signal;HPM_P1;HPM_P2
2022/09/10 00:01:01;;;;;;;2.45;1.50;;;;;;;16.12;88.85;100912.41;5056836;27;97750;-28
2022/09/10 00:03:27;;;;;;;4.22;1.27;;;;;;;16.10;88.80;100911.66;5056260;27;96517;-31
2022/09/10 00:05:52;;;;;;;8.05;1.40;;;;;;;16.10;88.88;100915.25;5056243;27;98568;-29
2022/09/10 00:08:18;;;;;;;2.25;1.30;;;;;;;16.13;88.63;100919.59;5055671;27;99424;-29
2022/09/10 00:10:47;;;;;;;5.30;1.20;;;;;;;16.14;88.37;100916.75;5056114;27;97292;-30
2022/09/10 00:13:16;;;;;;;3.55;1.33;;;;;;;16.08;88.22;100909.03;5056080;27;96540;-30
2022/09/10 00:15:44;;;;;;;3.72;1.15;;;;;;;16.10;88.62;100917.97;5037540;27;96860;-29
2022/09/10 00:18:11;;;;;;;2.58;2.22;;;;;;;16.12;88.64;100913.25;5037636;27;101112;-29
2022/09/10 00:20:49;;;;;;;4.18;1.27;;;;;;;16.18;88.24;100917.34;5037355;27;100819;-29
2022/09/10 00:23:17;;;;;;;4.35;1.10;;;;;;;16.14;87.96;100914.00;5037894;27;96789;-29
2022/09/10 00:25:42;;;;;;;5.00;0.98;;;;;;;16.13;87.80;100916.84;5038177;27;96911;-29
2022/09/10 00:28:08;;;;;;;1.17;0.70;;;;;;;16.12;87.92;100913.25;5055955;27;99962;-29
2022/09/10 00:30:42;;;;;;;0.82;0.68;;;;;;;16.10;87.68;100907.06;5055292;27;99187;-29
2022/09/10 00:33:08;;;;;;;2.70;0.90;;;;;;;16.08;87.61;100911.78;5037318;27;96609;-29
2022/09/10 00:35:34;;;;;;;0.90;0.70;;;;;;;15.98;87.35;100905.34;5055978;27;96844;-29
2022/09/10 00:38:00;;;;;;;5.10;0.90;;;;;;;15.96;87.33;100906.47;5054149;27;100921;-30
2022/09/10 00:40:25;;;;;;;1.92;0.90;;;;;;;15.94;87.47;100909.31;5037305;27;100789;-29
2022/09/10 00:42:51;;;;;;;2.70;0.90;;;;;;;15.94;87.82;100912.06;5056208;27;96567;-30
2022/09/10 00:45:22;;;;;;;3.97;1.00;;;;;;;15.97;87.41;100914.56;5056195;27;96795;-29
2022/09/10 00:47:50;;;;;;;1.17;0.65;;;;;;;15.96;87.26;100915.53;5055831;27;98131;-29
2022/09/10 00:50:22;;;;;;;3.72;0.98;;;;;;;15.91;87.20;100912.31;5037438;27;100867;-29
2022/09/10 00:52:51;;;;;;;4.68;0.93;;;;;;;15.93;87.43;100921.25;5055907;27;96656;-29
2022/09/10 00:55:17;;;;;;;4.53;1.73;;;;;;;15.86;87.66;100920.91;5037390;27;96842;-29
2022/09/10 00:57:46;;;;;;;4.13;1.50;;;;;;;15.85;87.60;100919.19;5036266;27;100902;-29
2022/09/10 01:00:13;;;;;;;4.97;1.40;;;;;;;15.88;87.78;100909.84;5055302;27;99105;-29
2022/09/10 01:02:39;;;;;;;6.30;1.98;;;;;;;15.87;88.00;100913.56;5054227;27;96670;-29
2022/09/10 01:05:08;;;;;;;7.10;2.03;;;;;;;15.81;88.37;100905.91;5037287;27;96725;-30
2022/09/10 01:07:34;;;;;;;4.82;1.90;;;;;;;15.81;88.82;100903.16;5055350;27;97951;-29
2022/09/10 01:10:03;;;;;;;7.28;2.70;;;;;;;15.84;88.21;100898.31;5036688;27;101125;-30
2022/09/10 01:12:50;;;;;;;11.60;2.88;;;;;;;15.84;88.91;100895.56;5037000;27;96568;-29
2022/09/10 01:15:28;;;;;;;8.80;2.80;;;;;;;15.88;88.70;100894.31;5036874;27;96847;-29
2022/09/10 01:18:30;;;;;;;5.63;2.67;;;;;;;15.89;89.15;100901.50;5054874;27;98848;-31
2022/09/10 01:21:22;;;;;;;7.85;2.72;;;;;;;15.90;89.61;100894.22;5036456;27;100719;-28
2022/09/10 01:24:11;;;;;;;7.85;3.25;;;;;;;15.93;89.18;100902.13;5036591;27;96600;-32
2022/09/10 01:27:05;;;;;;;7.40;2.80;;;;;;;15.93;88.84;100902.13;5037069;27;96756;-28
2022/09/10 01:29:43;;;;;;;11.73;3.35;;;;;;;15.92;89.17;100911.31;5055182;27;97543;-29
2022/09/10 01:32:14;;;;;;;5.00;2.22;;;;;;;15.91;90.03;100893.19;5053668;27;100796;-29
2022/09/10 01:34:46;;;;;;;13.53;3.67;;;;;;;15.93;89.64;100903.00;5036985;27;96637;-29
2022/09/10 01:37:28;;;;;;;10.27;2.83;;;;;;;15.89;89.38;100896.06;5036705;27;97284;-30
2022/09/10 01:39:55;;;;;;;10.07;2.50;;;;;;;15.96;89.38;100904.59;5036525;27;100934;-29
2022/09/10 01:42:25;;;;;;;8.00;2.90;;;;;;;15.97;89.67;100900.00;5036647;27;100812;-29
2022/09/10 01:44:52;;;;;;;6.72;2.60;;;;;;;15.93;90.14;100889.34;5036802;27;96634;-28
2022/09/10 01:47:32;;;;;;;15.77;3.70;;;;;;;16.00;89.86;100906.09;5036628;27;96875;-29
2022/09/10 01:50:02;;;;;;;10.65;2.83;;;;;;;16.02;90.58;100897.78;5054796;27;99464;-29
2022/09/10 01:52:38;;;;;;;10.60;3.78;;;;;;;16.02;89.83;100897.78;5039981;27;100872;-28
2022/09/10 01:55:06;;;;;;;8.63;3.67;;;;;;;15.99;91.63;100896.16;5058649;27;96944;-29
2022/09/10 01:57:41;;;;;;;13.95;4.28;;;;;;;16.03;90.95;100907.69;5040278;27;96930;-28
2022/09/10 02:00:08;;;;;;;9.80;3.88;;;;;;;16.05;91.80;100901.09;5057751;27;99844;-30
2022/09/10 02:02:57;;;;;;;6.07;2.60;;;;;;;16.00;91.18;100897.91;5058086;27;99435;-28
2022/09/10 02:05:23;;;;;;;7.15;2.42;;;;;;;16.01;91.66;100885.09;5058401;27;96496;-30
2022/09/10 02:07:58;;;;;;;9.57;2.30;;;;;;;15.99;91.63;100892.56;5040562;27;96840;-29
2022/09/10 02:10:24;;;;;;;7.47;3.25;;;;;;;16.00;91.19;100897.03;5039918;27;100785;-31
2022/09/10 02:12:49;;;;;;;4.90;2.22;;;;;;;15.96;90.83;100885.47;5057797;27;99142;-29
2022/09/10 02:15:17;;;;;;;4.88;2.38;;;;;;;15.97;91.49;100891.81;5057264;27;96768;-28
2022/09/10 02:17:45;;;;;;;7.30;2.97;;;;;;;15.91;90.84;100883.13;5039991;27;96885;-29
2022/09/10 02:20:13;;;;;;;5.30;2.83;;;;;;;15.93;91.07;100886.59;5039205;27;101321;-29
2022/09/10 02:22:47;;;;;;;5.53;2.75;;;;;;;15.98;90.73;100897.16;5039467;27;101088;-29
2022/09/10 02:25:13;;;;;;;9.75;2.97;;;;;;;15.95;90.75;100893.81;5057918;27;96779;-29
2022/09/10 02:27:38;;;;;;;11.48;3.50;;;;;;;15.93;91.09;100892.06;5058491;27;96794;-28
2022/09/10 02:30:06;;;;;;;8.38;3.30;;;;;;;15.96;91.96;100881.88;5057511;27;99292;-29
2022/09/10 02:32:31;;;;;;;7.72;3.13;;;;;;;16.00;91.43;100889.69;5039705;27;101401;-29
2022/09/10 02:34:57;;;;;;;7.80;2.92;;;;;;;15.98;91.56;100878.03;5057963;27;96692;-28
2022/09/10 02:37:23;;;;;;;8.85;3.08;;;;;;;16.00;91.82;100880.66;5057767;27;96832;-29
2022/09/10 02:39:48;;;;;;;10.13;3.20;;;;;;;16.01;92.28;100883.22;5056630;27;99324;-30
2022/09/10 02:42:15;;;;;;;8.98;3.70;;;;;;;16.01;91.71;100871.44;5039060;27;101293;-29
2022/09/10 02:44:41;;;;;;;13.23;3.95;;;;;;;16.05;91.92;100870.19;5057747;27;96615;-28
2022/09/10 02:47:06;;;;;;;11.00;4.32;;;;;;;16.03;91.91;100864.84;5058113;27;96799;-29
2022/09/10 02:49:33;;;;;;;10.32;3.45;;;;;;;16.05;92.12;100873.78;5057273;27;108002;-29
2022/09/10 02:51:59;;;;;;;11.05;3.47;;;;;;;16.10;92.38;100873.41;5057050;27;99130;-29
2022/09/10 02:54:25;;;;;;;11.10;3.38;;;;;;;16.06;92.66;100869.19;5057180;27;96809;-29
2022/09/10 02:56:50;;;;;;;8.88;4.25;;;;;;;16.08;92.05;100876.25;5057913;27;96832;-29
2022/09/10 02:59:24;;;;;;;9.82;3.83;;;;;;;16.10;91.97;100874.25;5057222;27;114405;-28
2022/09/10 03:01:50;;;;;;;14.55;3.75;;;;;;;16.11;92.04;100872.38;5055917;27;101367;-28
2022/09/10 03:04:16;;;;;;;7.15;3.38;;;;;;;16.13;91.95;100868.53;5056771;27;96576;-29
2022/09/10 03:06:46;;;;;;;7.63;3.33;;;;;;;16.14;91.78;100875.75;5057373;27;96828;-29
2022/09/10 03:09:11;;;;;;;9.48;3.15;;;;;;;16.12;91.75;100865.94;5057220;27;97997;-29
2022/09/10 03:11:39;;;;;;;6.15;2.33;;;;;;;16.12;92.07;100872.28;5056530;27;111047;-29
2022/09/10 03:14:07;;;;;;;6.43;2.28;;;;;;;16.14;91.57;100867.53;5038356;27;96782;-30
2022/09/10 03:16:33;;;;;;;4.75;2.13;;;;;;;16.10;92.05;100871.53;5039012;27;96834;-29
2022/09/10 03:18:58;;;;;;;6.03;2.22;;;;;;;16.11;92.22;100878.75;5056489;27;110575;-30
2022/09/10 03:21:24;;;;;;;7.78;2.15;;;;;;;16.10;92.44;100866.06;5056558;27;108410;-30
2022/09/10 03:23:51;;;;;;;5.53;1.70;;;;;;;16.07;93.05;100866.31;5057251;27;96581;-28
2022/09/10 03:26:18;;;;;;;4.90;1.88;;;;;;;16.13;92.62;100862.19;5038845;27;96807;-29
2022/09/10 03:28:44;;;;;;;4.45;2.30;;;;;;;16.16;92.54;100861.06;5037921;27;101041;-29
2022/09/10 03:31:10;;;;;;;7.32;2.10;;;;;;;16.17;92.19;100866.41;5038293;27;100847;-29
2022/09/10 03:33:36;;;;;;;3.17;1.60;;;;;;;16.15;91.67;100868.41;5056937;27;96654;-29
2022/09/10 03:36:03;;;;;;;2.63;1.35;;;;;;;16.11;92.38;100870.53;5055307;27;96810;-28
2022/09/10 03:38:28;;;;;;;3.83;1.40;;;;;;;16.09;92.90;100861.59;5038310;27;101316;-30
2022/09/10 03:40:54;;;;;;;4.03;1.58;;;;;;;16.06;92.49;100859.13;5056729;27;97766;-28
2022/09/10 03:43:21;;;;;;;2.40;1.33;;;;;;;16.03;92.59;100853.91;5055598;27;96497;-29
2022/09/10 03:45:50;;;;;;;2.10;1.13;;;;;;;16.10;92.48;100870.66;5038848;27;96866;-29
2022/09/10 03:48:17;;;;;;;2.83;1.10;;;;;;;16.09;92.79;100867.06;5038086;27;100876;-28
2022/09/10 03:50:44;;;;;;;3.25;1.23;;;;;;;16.09;92.68;100866.22;5038016;27;100965;-29
2022/09/10 03:53:11;;;;;;;2.75;1.10;;;;;;;16.06;92.66;100874.66;5037934;27;96707;-29
2022/09/10 03:55:55;;;;;;;2.97;1.45;;;;;;;16.05;92.10;100865.59;5038271;27;96922;-29
2022/09/10 03:58:20;;;;;;;2.42;1.13;;;;;;;16.07;92.02;100871.78;5056238;27;99286;-28
2022/09/10 04:00:45;;;;;;;7.70;1.38;;;;;;;16.10;92.40;100862.47;5056203;27;101868;-30
2022/09/10 04:03:11;;;;;;;4.75;1.63;;;;;;;16.10;92.38;100866.06;5056743;27;96852;-31
2022/09/10 04:05:42;;;;;;;10.02;1.52;;;;;;;16.11;92.27;100872.38;5056640;27;96834;-29
2022/09/10 04:08:09;;;;;;;3.60;1.33;;;;;;;16.11;91.82;100865.09;5056138;27;99780;-28
2022/09/10 04:10:35;;;;;;;6.97;1.75;;;;;;;16.15;91.78;100860.22;5038182;27;100802;-31
2022/09/10 04:13:00;;;;;;;5.38;1.35;;;;;;;16.14;91.83;100870.28;5037552;27;96974;-32
2022/09/10 04:15:26;;;;;;;5.43;1.55;;;;;;;16.17;91.34;100866.41;5056003;27;96813;-29
2022/09/10 04:17:51;;;;;;;2.45;1.38;;;;;;;16.19;91.25;100878.09;5055190;27;99231;-29
2022/09/10 04:20:18;;;;;;;3.17;1.80;;;;;;;16.20;90.94;100870.75;5055229;27;115518;-30
2022/09/10 04:22:45;;;;;;;8.85;1.30;;;;;;;16.17;92.03;100865.56;5037807;27;97136;-29
2022/09/10 04:25:11;;;;;;;3.25;1.50;;;;;;;16.13;92.00;100871.25;5037888;27;96822;-30
2022/09/10 04:27:37;;;;;;;6.95;1.50;;;;;;;16.13;92.35;100871.25;5037446;27;100858;-29
2022/09/10 04:30:02;;;;;;;11.32;2.10;;;;;;;16.15;92.18;100873.88;5055876;27;97828;-30
2022/09/10 04:32:27;;;;;;;6.82;2.08;;;;;;;16.14;92.17;100881.22;5055916;27;96586;-30
2022/09/10 04:34:53;;;;;;;7.95;2.15;;;;;;;16.17;92.32;100881.94;5056429;27;96822;-29
2022/09/10 04:37:20;;;;;;;8.15;2.28;;;;;;;16.14;92.46;100872.16;5037271;27;101227;-29
2022/09/10 04:39:46;;;;;;;7.82;2.22;;;;;;;16.16;92.29;100881.09;5055834;27;97898;-28
2022/09/10 04:42:12;;;;;;;6.53;1.90;;;;;;;16.20;92.23;100881.69;5055558;27;96695;-29
2022/09/10 04:44:37;;;;;;;4.32;2.20;;;;;;;16.19;92.11;100871.75;5037283;27;96811;-29
2022/09/10 04:47:03;;;;;;;11.35;2.58;;;;;;;16.20;92.07;100877.06;5055688;27;97384;-28
2022/09/10 04:49:28;;;;;;;8.90;2.40;;;;;;;16.19;92.90;100889.03;5055349;27;99342;-29
2022/09/10 04:51:54;;;;;;;5.20;1.92;;;;;;;16.20;92.75;100882.53;5055642;27;96494;-29
2022/09/10 04:54:19;;;;;;;5.88;1.80;;;;;;;16.22;92.13;100879.69;5055183;27;106006;-29
2022/09/10 04:56:45;;;;;;;6.97;1.95;;;;;;;16.25;92.40;100887.63;5055570;27;99534;-29
2022/09/10 04:59:10;;;;;;;3.58;2.20;;;;;;;16.27;91.70;100881.03;5037408;27;100766;-29
2022/09/10 05:01:36;;;;;;;4.50;2.03;;;;;;;16.29;91.72;100884.50;5054678;27;110357;-29
2022/09/10 05:04:02;;;;;;;4.38;2.05;;;;;;;16.31;91.30;100882.50;5055566;27;96915;-29
2022/09/10 05:06:27;;;;;;;12.02;2.33;;;;;;;16.34;91.90;100884.09;5036368;27;101210;-29
2022/09/10 05:08:53;;;;;;;9.50;2.45;;;;;;;16.34;91.56;100886.84;5055361;27;100961;-29
2022/09/10 05:11:19;;;;;;;4.13;1.90;;;;;;;16.36;91.58;100882.13;5055540;27;96549;-31
2022/09/10 05:13:44;;;;;;;3.97;2.15;;;;;;;16.37;91.57;100882.97;5054582;27;96857;-29
2022/09/10 05:16:10;;;;;;;7.13;2.17;;;;;;;16.37;91.61;100885.72;5036703;27;100747;-28
2022/09/10 05:18:36;;;;;;;6.45;1.77;;;;;;;16.36;91.23;100882.13;5054895;27;99188;-29
2022/09/10 05:21:01;;;;;;;5.28;1.83;;;;;;;16.35;91.53;100886.72;5054837;27;96823;-30
2022/09/10 05:23:26;;;;;;;5.07;1.77;;;;;;;16.37;91.75;100889.31;5055415;27;97564;-30
2022/09/10 05:25:52;;;;;;;7.82;1.65;;;;;;;16.40;91.51;100893.63;5053961;27;99336;-29
2022/09/10 05:28:19;;;;;;;6.03;1.98;;;;;;;16.41;91.20;100895.41;5054937;27;99667;-29
2022/09/10 05:30:45;;;;;;;8.10;1.75;;;;;;;16.39;90.90;100903.72;5054567;27;96649;-30
2022/09/10 05:33:11;;;;;;;4.25;2.17;;;;;;;16.43;91.17;100907.06;5054957;27;96813;-31
2022/09/10 05:35:37;;;;;;;10.73;2.00;;;;;;;16.43;91.11;100907.06;5054816;27;99385;-29
2022/09/10 05:38:02;;;;;;;12.13;2.15;;;;;;;16.43;90.83;100899.72;5054863;27;98987;-29
2022/09/10 05:40:28;;;;;;;4.90;1.67;;;;;;;16.44;90.81;100903.31;5054963;27;96732;-29
2022/09/10 05:42:53;;;;;;;9.02;2.10;;;;;;;16.42;90.95;100906.22;5036669;27;96944;-29
2022/09/10 05:45:19;;;;;;;4.15;1.80;;;;;;;16.45;91.08;100914.16;5054549;27;99316;-29
2022/09/10 05:47:45;;;;;;;5.85;1.92;;;;;;;16.46;90.69;100910.41;5055283;27;97355;-28
2022/09/10 05:50:11;;;;;;;4.97;2.15;;;;;;;16.44;90.60;100912.38;5053604;27;96623;-29
2022/09/10 05:52:36;;;;;;;5.15;1.92;;;;;;;16.45;91.18;100919.63;5054708;27;96909;-28
2022/09/10 05:55:02;;;;;;;8.32;2.28;;;;;;;16.46;91.18;100921.34;5054075;27;99307;-29
2022/09/10 05:57:28;;;;;;;5.05;2.17;;;;;;;16.47;90.60;100920.34;5054590;27;98755;-29
2022/09/10 05:59:53;;;;;;;6.30;1.95;;;;;;;16.50;91.19;100927.44;5054561;27;96797;-29
2022/09/10 06:02:19;;;;;;;8.15;2.05;;;;;;;16.52;90.37;100919.97;5054335;27;108730;-30
2022/09/10 06:04:44;;;;;;;4.65;1.88;;;;;;;16.56;90.73;100921.41;5054484;27;99604;-29
2022/09/10 06:07:09;;;;;;;6.95;1.75;;;;;;;16.60;90.34;100927.50;5054213;27;112370;-29
2022/09/10 06:09:35;;;;;;;7.00;2.05;;;;;;;16.64;90.29;100928.97;5054743;27;96485;-30
2022/09/10 06:12:00;;;;;;;3.45;1.52;;;;;;;16.71;90.55;100927.47;5055013;27;96844;-29
2022/09/10 06:14:26;;;;;;;5.18;1.77;;;;;;;16.77;89.99;100927.78;5053560;27;97738;-28
2022/09/10 06:16:53;;;;;;;4.88;2.00;;;;;;;16.85;90.03;100921.69;5054002;27;104289;-28
2022/09/10 06:19:19;;;;;;;4.30;1.92;;;;;;;16.88;90.04;100926.88;5054132;27;96732;-29
2022/09/10 06:21:45;;;;;;;4.22;2.38;;;;;;;16.95;90.42;100933.56;5035932;27;96887;-31
2022/09/10 06:24:11;;;;;;;3.67;1.90;;;;;;;16.99;90.18;100934.16;5054262;27;97989;-30
2022/09/10 06:26:37;;;;;;;7.03;2.42;;;;;;;17.03;89.95;100930.16;5054676;27;97263;-29
2022/09/10 06:29:02;;;;;;;5.00;2.33;;;;;;;17.12;89.45;100934.81;5054598;27;96387;-28
2022/09/10 06:31:28;;;;;;;4.40;1.88;;;;;;;17.23;89.13;100936.59;5054588;27;96829;-28
2022/09/10 06:33:53;;;;;;;3.38;1.92;;;;;;;17.32;88.75;100934.91;5035870;27;101407;-29
2022/09/10 06:36:19;;;;;;;4.15;2.08;;;;;;;17.38;89.18;100937.13;5055407;27;112575;-28
2022/09/10 06:38:44;;;;;;;3.05;1.65;;;;;;;17.40;88.94;100948.81;5057461;27;96675;-30
2022/09/10 06:41:14;;;;;;;10.55;1.80;;;;;;;17.41;89.53;100951.41;5057808;27;96695;-28
2022/09/10 06:43:40;;;;;;;5.38;1.77;;;;;;;17.44;89.27;100954.88;5037731;27;101395;-29
2022/09/10 06:46:19;;;;;;;5.50;1.52;;;;;;;17.46;89.64;100958.34;5038759;27;100354;-28
2022/09/10 06:48:44;;;;;;;2.45;1.25;;;;;;;17.47;89.37;100962.81;5056432;27;96571;-31
2022/09/10 06:51:12;;;;;;;1.75;1.00;;;;;;;17.46;89.06;100972.91;5057480;27;96739;-30
2022/09/10 06:53:39;;;;;;;4.88;1.40;;;;;;;17.47;88.80;100963.69;5039000;27;100656;-29
2022/09/10 06:56:07;;;;;;;1.85;1.10;;;;;;;17.44;89.34;100965.81;5057196;27;99096;-29
2022/09/10 06:58:37;;;;;;;1.13;0.75;;;;;;;17.47;89.02;100976.50;5056540;27;96632;-29
2022/09/10 07:01:06;;;;;;;4.85;1.23;;;;;;;17.48;89.41;100976.38;5058008;27;96728;-29
2022/09/10 07:03:32;;;;;;;3.35;1.15;;;;;;;17.50;88.99;100979.84;5055569;27;99467;-29
2022/09/10 07:06:02;;;;;;;2.50;0.90;;;;;;;17.58;89.20;100990.13;5053753;27;100631;-31
2022/09/10 07:08:27;;;;;;;2.88;1.00;;;;;;;17.60;88.66;100983.50;5037590;27;96618;-28
2022/09/10 07:10:59;;;;;;;2.58;0.98;;;;;;;17.66;89.24;100982.06;5055761;27;102285;-29
2022/09/10 07:13:26;;;;;;;5.80;1.02;;;;;;;17.73;88.57;100987.88;5036157;27;101400;-34
2022/09/10 07:15:52;;;;;;;1.45;0.70;;;;;;;17.86;88.29;100988.56;5054190;27;97847;-28
2022/09/10 07:18:24;;;;;;;1.75;0.50;;;;;;;17.98;88.21;100983.84;5056327;27;96658;-28
2022/09/10 07:20:50;;;;;;;2.97;0.70;;;;;;;18.14;87.86;100992.41;5037959;27;96957;-30
2022/09/10 07:23:17;;;;;;;2.88;0.77;;;;;;;18.24;87.04;100995.16;5056189;27;98014;-31
2022/09/10 07:25:43;;;;;;;3.10;1.10;;;;;;;18.21;86.99;100998.16;5038089;27;100852;-29
2022/09/10 07:28:12;;;;;;;1.08;0.50;;;;;;;18.19;87.01;100992.84;5056614;27;96834;-28
2022/09/10 07:30:39;;;;;;;1.17;0.60;;;;;;;18.19;86.76;101001.06;5038593;27;96847;-28
2022/09/10 07:33:05;;;;;;;1.45;0.43;;;;;;;18.17;87.28;101003.06;5036871;27;101207;-30
2022/09/10 07:35:36;;;;;;;0.43;0.35;;;;;;;18.28;87.04;100999.34;5038113;27;101398;-29
2022/09/10 07:38:06;;;;;;;2.25;0.50;;;;;;;18.43;87.13;101000.69;5057137;27;96575;-28
2022/09/10 07:40:32;;;;;;;0.52;0.28;;;;;;;18.52;85.92;100998.09;5038734;27;96922;-29
2022/09/10 07:42:58;;;;;;;2.65;0.55;;;;;;;18.52;86.20;101007.22;5038196;27;100814;-28
2022/09/10 07:45:25;;;;;;;2.17;0.40;;;;;;;18.53;86.34;101011.66;5056660;27;97787;-29
2022/09/10 07:47:51;;;;;;;0.98;0.47;;;;;;;18.47;86.16;101017.72;5036979;27;96588;-30
2022/09/10 07:50:16;;;;;;;2.90;0.63;;;;;;;18.42;87.09;101017.28;5054827;27;96889;-29
2022/09/10 07:52:42;;;;;;;1.48;0.63;;;;;;;18.60;86.69;101017.47;5054230;27;101133;-28
2022/09/10 07:55:08;;;;;;;2.60;0.80;;;;;;;18.66;86.43;101028.75;5056529;27;97740;-29
2022/09/10 07:57:38;;;;;;;2.65;0.57;;;;;;;18.65;86.07;101024.25;5037881;27;96773;-29
2022/09/10 08:00:06;;;;;;;1.60;0.35;;;;;;;18.68;86.48;101029.44;5055231;27;96793;-29
2022/09/10 08:02:32;;;;;;;2.67;0.40;;;;;;;18.84;85.60;101030.81;5037880;27;101616;-28
2022/09/10 08:04:57;;;;;;;0.52;0.20;;;;;;;19.15;85.17;101019.66;5056009;27;99149;-28
2022/09/10 08:07:22;;;;;;;0.95;0.20;;;;;;;19.43;83.74;101029.75;5056699;27;96682;-29
2022/09/10 08:09:48;;;;;;;2.95;0.60;;;;;;;19.68;82.99;101038.38;5056518;27;96848;-28
2022/09/10 08:12:15;;;;;;;0.85;0.20;;;;;;;19.90;82.44;101038.03;5055860;27;97915;-29
2022/09/10 08:14:41;;;;;;;0.50;0.30;;;;;;;20.06;81.28;101042.00;5037580;27;100914;-30
2022/09/10 08:17:06;;;;;;;1.80;0.43;;;;;;;20.08;81.30;101048.22;5038071;27;96579;-28
2022/09/10 08:19:32;;;;;;;0.55;0.28;;;;;;;20.08;81.11;101049.09;5056252;27;96793;-29
2022/09/10 08:21:58;;;;;;;0.45;0.30;;;;;;;20.01;80.95;101045.22;5053924;27;101435;-28
2022/09/10 08:24:35;;;;;;;2.33;0.65;;;;;;;19.88;81.19;101056.56;5056136;27;97308;-28
2022/09/10 08:27:01;;;;;;;2.45;0.60;;;;;;;19.68;81.71;101071.38;5056388;27;96556;-28
2022/09/10 08:29:27;;;;;;;1.33;0.75;;;;;;;19.49;82.55;101070.34;5055656;27;110304;-28
2022/09/10 08:31:52;;;;;;;2.45;1.17;;;;;;;19.36;83.06;101078.06;5055448;27;99687;-28
2022/09/10 08:34:17;;;;;;;2.25;1.45;;;;;;;19.29;83.45;101082.41;5055152;27;122247;-28
2022/09/10 08:36:42;;;;;;;2.05;1.30;;;;;;;19.21;83.89;101091.38;5055466;27;114665;-30
2022/09/10 08:39:08;;;;;;;6.60;1.52;;;;;;;19.26;83.49;101091.78;5056101;27;112013;-28
2022/09/10 08:41:40;;;;;;;6.05;2.10;;;;;;;19.32;83.11;101115.06;5055713;27;98088;-28
2022/09/10 08:44:30;;;;;;;2.92;1.48;;;;;;;19.33;82.97;101110.44;5037468;27;100869;-28
2022/09/10 08:47:18;;;;;;;6.93;2.35;;;;;;;19.28;82.75;101119.09;5055414;27;96531;-28
2022/09/10 08:49:55;;;;;;;6.18;2.65;;;;;;;19.10;82.67;101125.31;5037706;27;96783;-29
2022/09/10 08:52:37;;;;;;;5.57;3.00;;;;;;;19.02;83.04;101127.91;5055294;27;99797;-29
2022/09/10 08:55:12;;;;;;;5.85;2.80;;;;;;;19.00;83.03;101146.41;5037259;27;101233;-29
2022/09/10 08:57:46;;;;;;;5.68;2.72;;;;;;;19.02;83.09;101138.00;5055492;27;102689;-29
2022/09/10 09:00:18;;;;;;;8.30;3.42;;;;;;;19.11;82.78;101139.91;5055739;27;96770;-29
2022/09/10 09:03:05;;;;;;;4.70;2.40;;;;;;;19.09;82.38;101139.19;5037053;27;101394;-28
2022/09/10 09:05:46;;;;;;;5.80;2.65;;;;;;;19.04;82.16;101145.13;5037302;27;100959;-29
2022/09/10 09:08:14;;;;;;;5.57;2.67;;;;;;;19.01;82.24;101155.50;5037598;27;96579;-29
2022/09/10 09:10:48;;;;;;;6.20;3.38;;;;;;;18.89;82.50;101146.53;5037153;27;96863;-28
2022/09/10 09:13:21;;;;;;;7.85;3.33;;;;;;;18.89;82.72;101152.88;5054487;27;99351;-29
2022/09/10 09:16:05;;;;;;;7.75;3.55;;;;;;;18.86;82.29;101158.66;5053814;27;100797;-28
2022/09/10 09:18:50;;;;;;;5.47;3.15;;;;;;;18.94;82.71;101157.94;5037080;27;96529;-28
2022/09/10 09:21:23;;;;;;;5.82;2.95;;;;;;;18.98;81.95;101158.53;5054036;27;96808;-28
2022/09/10 09:23:55;;;;;;;5.05;3.22;;;;;;;19.09;81.99;101161.13;5055070;27;99913;-29
2022/09/10 09:26:43;;;;;;;4.57;2.72;;;;;;;19.12;81.83;101168.25;5036808;27;99118;-29
2022/09/10 09:29:29;;;;;;;4.97;2.85;;;;;;;19.14;81.02;101166.22;5054325;27;97233;-28
2022/09/10 09:31:59;;;;;;;4.95;2.83;;;;;;;19.20;81.18;101169.25;5055890;27;96458;-28
2022/09/10 09:34:45;;;;;;;5.32;2.88;;;;;;;19.28;80.88;101168.53;5054669;27;99240;-28
2022/09/10 09:37:25;;;;;;;5.65;2.97;;;;;;;19.34;80.08;101170.72;5036735;27;101071;-29
2022/09/10 09:40:19;;;;;;;4.03;2.70;;;;;;;19.35;79.34;101175.19;5054664;27;96535;-29
2022/09/10 09:43:01;;;;;;;4.85;2.33;;;;;;;19.38;79.08;101176.78;5036665;27;96850;-29
2022/09/10 09:45:35;;;;;;;3.47;2.15;;;;;;;19.46;79.42;101185.19;5036475;27;100808;-29
2022/09/10 09:48:06;;;;;;;6.13;2.70;;;;;;;19.46;79.77;101188.81;5036301;27;100790;-28
2022/09/10 09:50:35;;;;;;;4.22;2.45;;;;;;;19.59;78.83;101188.50;5036834;27;96675;-29
2022/09/10 09:53:00;;;;;;;4.05;2.25;;;;;;;19.48;79.33;101194.16;5036581;27;96950;-29
2022/09/10 09:55:36;;;;;;;7.85;2.70;;;;;;;19.42;79.62;101203.84;5054208;27;111414;-29
2022/09/10 09:58:25;;;;;;;6.97;2.85;;;;;;;19.28;78.77;101198.75;5036536;27;100826;-30
2022/09/10 10:01:03;;;;;;;5.18;2.67;;;;;;;19.30;79.33;101202.22;5041533;27;96904;-29
2022/09/10 10:03:50;;;;;;;4.65;2.83;;;;;;;19.45;78.87;101205.41;5054958;27;96820;-28
2022/09/10 10:06:18;;;;;;;4.72;2.53;;;;;;;19.67;78.25;101205.16;5053987;27;99425;-30
2022/09/10 10:08:43;;;;;;;5.13;2.67;;;;;;;19.85;77.30;101202.56;5036140;27;100583;-29
2022/09/10 10:11:13;;;;;;;4.33;2.70;;;;;;;20.06;76.97;101196.88;5055666;27;96579;-28
2022/09/10 10:13:41;;;;;;;4.72;2.88;;;;;;;20.38;75.65;101206.69;5039620;27;96759;-31
2022/09/10 10:16:15;;;;;;;4.03;2.00;;;;;;;20.74;75.00;101207.72;5018284;28;99326;-30
2022/09/10 10:18:41;;;;;;;3.92;2.30;;;;;;;21.06;74.44;101200.88;5016195;28;100956;-28
2022/09/10 10:21:12;;;;;;;3.67;2.03;;;;;;;21.41;72.49;101205.59;5016405;28;96877;-28
2022/09/10 10:23:38;;;;;;;3.70;1.60;;;;;;;21.71;71.22;101208.13;5016881;28;96734;-28
2022/09/10 10:26:19;;;;;;;3.30;1.70;;;;;;;22.01;70.42;101215.13;5016083;28;101801;-29
2022/09/10 10:29:05;;;;;;;4.07;1.50;;;;;;;22.21;69.40;101211.13;5015975;28;101194;-28
2022/09/10 10:31:38;;;;;;;2.22;1.30;;;;;;;22.45;68.04;101221.50;5016686;28;96591;-28
2022/09/10 10:34:28;;;;;;;2.72;1.73;;;;;;;22.75;68.25;101227.53;5016095;28;96833;-28
2022/09/10 10:37:10;;;;;;;4.32;1.50;;;;;;;22.97;66.70;101223.31;5017254;28;97976;-29
2022/09/10 10:39:59;;;;;;;2.55;2.00;;;;;;;23.16;66.66;101224.09;5015819;28;100752;-28
2022/09/10 10:42:43;;;;;;;2.15;1.55;;;;;;;23.21;67.60;101225.31;5016073;28;96790;-28
2022/09/10 10:45:24;;;;;;;2.55;1.38;;;;;;;22.87;67.81;101234.50;5017392;28;96553;-28
2022/09/10 10:47:54;;;;;;;2.50;1.45;;;;;;;22.50;68.46;101243.09;5015667;28;100862;-28
2022/09/10 10:50:35;;;;;;;3.33;1.70;;;;;;;22.13;69.83;101248.84;5015859;28;100385;-29
2022/09/10 10:53:17;;;;;;;3.75;1.95;;;;;;;21.78;69.25;101251.44;5015937;28;96637;-29
2022/09/10 10:55:54;;;;;;;4.85;1.77;;;;;;;21.77;70.22;101241.44;5015723;28;96884;-28
2022/09/10 10:58:38;;;;;;;2.42;1.55;;;;;;;22.03;70.02;101252.53;5015059;28;101453;-28
2022/09/10 11:01:14;;;;;;;2.97;1.75;;;;;;;22.02;69.80;101249.94;5015572;28;101623;-30
2022/09/10 11:03:47;;;;;;;2.85;1.60;;;;;;;22.23;69.11;101250.47;5015785;28;96636;-29
2022/09/10 11:06:26;;;;;;;3.35;1.75;;;;;;;22.06;70.18;101259.63;5015845;28;96813;-28
2022/09/10 11:09:00;;;;;;;3.53;2.15;;;;;;;21.55;70.67;101262.09;5015456;28;101371;-29
2022/09/10 11:11:35;;;;;;;3.47;2.42;;;;;;;21.24;71.55;101267.06;5014937;28;101320;-29
2022/09/10 11:14:18;;;;;;;8.40;2.42;;;;;;;20.86;72.71;101266.22;5015675;28;96688;-28
2022/09/10 11:16:53;;;;;;;6.63;2.28;;;;;;;20.73;73.57;101274.78;5039428;27;96623;-29
2022/09/10 11:19:34;;;;;;;4.05;2.45;;;;;;;20.71;74.22;101263.09;5038728;27;100888;-29
2022/09/10 11:22:24;;;;;;;2.50;1.88;;;;;;;20.92;73.52;101275.75;5056241;27;99364;-29
2022/09/10 11:25:14;;;;;;;7.68;2.47;;;;;;;21.34;71.49;101275.25;5038148;27;96678;-30
2022/09/10 11:27:45;;;;;;;6.60;2.63;;;;;;;21.79;70.64;101269.75;5057442;27;97268;-28
2022/09/10 11:30:18;;;;;;;5.72;2.72;;;;;;;22.09;69.87;101266.72;5038598;27;101079;-28
2022/09/10 11:32:52;;;;;;;4.97;2.47;;;;;;;22.35;68.21;101269.56;5056944;27;97836;-28
2022/09/10 11:35:28;;;;;;;5.63;2.65;;;;;;;22.10;69.35;101272.09;5038638;27;96613;-28